sensor_id;sensor_type;location;lat;lon;timestamp;P1;durP1;ratioP1;P2;durP2;ratioP2
21677;SDS011;11000;50.360;7.582;2023-12-20T00:00:00;1.23;;;1.13;;
21677;SDS011;11000;50.360;7.582;2023-12-20T00:02:21;1.00;;;1.00;;
21677;SDS011;11000;50.360;7.582;2023-12-20T00:04:41;1.00;;;0.90;;
21677;SDS011;11000;50.360;7.582;2023-12-20T00:07:02;1.10;;;0.93;;
21677;SDS011;11000;50.360;7.582;2023-12-20T00:09:22;1.00;;;0.90;;
21677;SDS011;11000;50.360;7.582;2023-12-20T00:11:43;0.77;;;0.73;;
21677;SDS011;11000;50.360;7.582;2023-12-20T00:14:03;0.93;;;0.90;;
21677;SDS011;11000;50.360;7.582;2023-12-20T00:16:24;1.07;;;1.00;;
21677;SDS011;11000;50.360;7.582;2023-12-20T00:18:44;1.93;;;1.10;;
21677;SDS011;11000;50.360;7.582;2023-12-20T00:21:04;1.30;;;1.03;;
21677;SDS011;11000;50.360;7.582;2023-12-20T00:23:25;1.00;;;0.90;;
21677;SDS011;11000;50.360;7.582;2023-12-20T00:25:45;1.43;;;1.20;;
21677;SDS011;11000;50.360;7.582;2023-12-20T00:28:06;1.47;;;1.00;;
21677;SDS011;11000;50.360;7.582;2023-12-20T00:30:27;0.83;;;0.80;;
21677;SDS011;11000;50.360;7.582;2023-12-20T00:32:47;1.17;;;0.83;;
21677;SDS011;11000;50.360;7.582;2023-12-20T00:35:08;0.60;;;0.60;;
21677;SDS011;11000;50.360;7.582;2023-12-20T00:37:28;0.90;;;0.90;;
21677;SDS011;11000;50.360;7.582;2023-12-20T00:39:49;1.00;;;1.00;;
21677;SDS011;11000;50.360;7.582;2023-12-20T00:42:09;1.37;;;1.10;;
21677;SDS011;11000;50.360;7.582;2023-12-20T00:44:30;1.77;;;1.00;;
21677;SDS011;11000;50.360;7.582;2023-12-20T00:46:50;1.10;;;0.80;;
21677;SDS011;11000;50.360;7.582;2023-12-20T00:49:11;0.93;;;0.90;;
21677;SDS011;11000;50.360;7.582;2023-12-20T00:51:31;0.80;;;0.80;;
21677;SDS011;11000;50.360;7.582;2023-12-20T00:53:52;1.03;;;0.87;;
21677;SDS011;11000;50.360;7.582;2023-12-20T00:56:14;1.50;;;1.00;;
21677;SDS011;11000;50.360;7.582;2023-12-20T00:58:35;1.33;;;1.00;;
21677;SDS011;11000;50.360;7.582;2023-12-20T01:00:55;1.07;;;1.03;;
21677;SDS011;11000;50.360;7.582;2023-12-20T01:03:16;1.63;;;0.90;;
21677;SDS011;11000;50.360;7.582;2023-12-20T01:05:36;0.80;;;0.80;;
21677;SDS011;11000;50.360;7.582;2023-12-20T01:07:57;0.73;;;0.73;;
21677;SDS011;11000;50.360;7.582;2023-12-20T01:10:17;0.97;;;0.90;;
21677;SDS011;11000;50.360;7.582;2023-12-20T01:12:38;1.00;;;0.90;;
21677;SDS011;11000;50.360;7.582;2023-12-20T01:14:58;1.53;;;0.90;;
21677;SDS011;11000;50.360;7.582;2023-12-20T01:17:19;0.70;;;0.70;;
21677;SDS011;11000;50.360;7.582;2023-12-20T01:19:39;1.10;;;1.00;;
21677;SDS011;11000;50.360;7.582;2023-12-20T01:21:59;1.60;;;1.00;;
21677;SDS011;11000;50.360;7.582;2023-12-20T01:24:20;1.30;;;1.07;;
21677;SDS011;11000;50.360;7.582;2023-12-20T01:26:40;1.03;;;1.00;;
21677;SDS011;11000;50.360;7.582;2023-12-20T01:29:01;0.70;;;0.67;;
21677;SDS011;11000;50.360;7.582;2023-12-20T01:31:21;0.80;;;0.80;;
21677;SDS011;11000;50.360;7.582;2023-12-20T01:33:42;0.80;;;0.80;;
21677;SDS011;11000;50.360;7.582;2023-12-20T01:36:03;0.90;;;0.90;;
21677;SDS011;11000;50.360;7.582;2023-12-20T01:38:24;0.80;;;0.80;;
21677;SDS011;11000;50.360;7.582;2023-12-20T01:40:44;1.10;;;1.00;;
21677;SDS011;11000;50.360;7.582;2023-12-20T01:43:07;1.27;;;1.17;;
21677;SDS011;11000;50.360;7.582;2023-12-20T01:45:28;1.10;;;1.00;;
21677;SDS011;11000;50.360;7.582;2023-12-20T01:47:49;1.50;;;1.00;;
21677;SDS011;11000;50.360;7.582;2023-12-20T01:50:10;0.67;;;0.67;;
21677;SDS011;11000;50.360;7.582;2023-12-20T01:52:30;0.83;;;0.70;;
21677;SDS011;11000;50.360;7.582;2023-12-20T01:54:53;0.97;;;0.93;;
21677;SDS011;11000;50.360;7.582;2023-12-20T01:57:16;1.00;;;1.00;;
21677;SDS011;11000;50.360;7.582;2023-12-20T01:59:38;1.40;;;0.70;;
21677;SDS011;11000;50.360;7.582;2023-12-20T02:01:59;1.10;;;0.93;;
21677;SDS011;11000;50.360;7.582;2023-12-20T02:04:20;1.03;;;0.93;;
21677;SDS011;11000;50.360;7.582;2023-12-20T02:06:41;1.37;;;1.07;;
21677;SDS011;11000;50.360;7.582;2023-12-20T02:09:03;0.70;;;0.60;;
21677;SDS011;11000;50.360;7.582;2023-12-20T02:11:24;0.97;;;0.90;;
21677;SDS011;11000;50.360;7.582;2023-12-20T02:13:45;2.00;;;1.10;;
21677;SDS011;11000;50.360;7.582;2023-12-20T02:16:06;1.47;;;0.67;;
21677;SDS011;11000;50.360;7.582;2023-12-20T02:18:27;1.10;;;1.00;;
21677;SDS011;11000;50.360;7.582;2023-12-20T02:20:48;0.70;;;0.70;;
21677;SDS011;11000;50.360;7.582;2023-12-20T02:23:08;0.80;;;0.80;;
21677;SDS011;11000;50.360;7.582;2023-12-20T02:25:29;0.90;;;0.90;;
21677;SDS011;11000;50.360;7.582;2023-12-20T02:27:49;0.93;;;0.90;;
21677;SDS011;11000;50.360;7.582;2023-12-20T02:30:11;1.00;;;0.90;;
21677;SDS011;11000;50.360;7.582;2023-12-20T02:32:32;1.13;;;1.03;;
21677;SDS011;11000;50.360;7.582;2023-12-20T02:34:52;1.20;;;1.10;;
21677;SDS011;11000;50.360;7.582;2023-12-20T02:37:13;1.50;;;1.10;;
21677;SDS011;11000;50.360;7.582;2023-12-20T02:39:34;1.20;;;1.10;;
21677;SDS011;11000;50.360;7.582;2023-12-20T02:41:54;1.00;;;0.90;;
21677;SDS011;11000;50.360;7.582;2023-12-20T02:44:15;2.17;;;0.90;;
21677;SDS011;11000;50.360;7.582;2023-12-20T02:46:35;1.17;;;1.07;;
21677;SDS011;11000;50.360;7.582;2023-12-20T02:48:56;1.00;;;0.90;;
21677;SDS011;11000;50.360;7.582;2023-12-20T02:51:16;1.10;;;1.00;;
21677;SDS011;11000;50.360;7.582;2023-12-20T02:53:37;1.47;;;1.37;;
21677;SDS011;11000;50.360;7.582;2023-12-20T02:55:57;1.93;;;1.30;;
21677;SDS011;11000;50.360;7.582;2023-12-20T02:58:18;1.10;;;0.90;;
21677;SDS011;11000;50.360;7.582;2023-12-20T03:00:38;1.20;;;1.10;;
21677;SDS011;11000;50.360;7.582;2023-12-20T03:02:59;0.97;;;0.97;;
21677;SDS011;11000;50.360;7.582;2023-12-20T03:05:19;2.40;;;1.00;;
21677;SDS011;11000;50.360;7.582;2023-12-20T03:07:40;1.03;;;0.93;;
21677;SDS011;11000;50.360;7.582;2023-12-20T03:10:01;1.20;;;1.00;;
21677;SDS011;11000;50.360;7.582;2023-12-20T03:12:21;0.77;;;0.77;;
21677;SDS011;11000;50.360;7.582;2023-12-20T03:14:43;0.90;;;0.90;;
21677;SDS011;11000;50.360;7.582;2023-12-20T03:17:04;1.13;;;1.03;;
21677;SDS011;11000;50.360;7.582;2023-12-20T03:19:24;1.27;;;1.17;;
21677;SDS011;11000;50.360;7.582;2023-12-20T03:21:45;1.10;;;1.00;;
21677;SDS011;11000;50.360;7.582;2023-12-20T03:24:05;3.60;;;1.40;;
21677;SDS011;11000;50.360;7.582;2023-12-20T03:26:26;4.07;;;1.87;;
21677;SDS011;11000;50.360;7.582;2023-12-20T03:28:46;6.90;;;2.23;;
21677;SDS011;11000;50.360;7.582;2023-12-20T03:31:09;3.10;;;2.63;;
21677;SDS011;11000;50.360;7.582;2023-12-20T03:33:30;7.40;;;2.73;;
21677;SDS011;11000;50.360;7.582;2023-12-20T03:35:51;5.67;;;1.77;;
21677;SDS011;11000;50.360;7.582;2023-12-20T03:38:11;7.17;;;2.23;;
21677;SDS011;11000;50.360;7.582;2023-12-20T03:40:32;4.70;;;1.50;;
21677;SDS011;11000;50.360;7.582;2023-12-20T03:42:53;4.93;;;1.50;;
21677;SDS011;11000;50.360;7.582;2023-12-20T03:45:13;3.80;;;1.40;;
21677;SDS011;11000;50.360;7.582;2023-12-20T03:47:34;6.60;;;2.20;;
21677;SDS011;11000;50.360;7.582;2023-12-20T03:49:54;3.27;;;1.40;;
21677;SDS011;11000;50.360;7.582;2023-12-20T03:52:14;4.83;;;1.07;;
21677;SDS011;11000;50.360;7.582;2023-12-20T03:54:35;4.90;;;1.27;;
21677;SDS011;11000;50.360;7.582;2023-12-20T03:56:55;4.67;;;1.20;;
21677;SDS011;11000;50.360;7.582;2023-12-20T03:59:16;2.50;;;1.37;;
21677;SDS011;11000;50.360;7.582;2023-12-20T04:01:37;4.27;;;1.30;;
21677;SDS011;11000;50.360;7.582;2023-12-20T04:03:58;5.07;;;1.27;;
21677;SDS011;11000;50.360;7.582;2023-12-20T04:06:18;3.90;;;1.37;;
21677;SDS011;11000;50.360;7.582;2023-12-20T04:08:39;4.97;;;1.30;;
21677;SDS011;11000;50.360;7.582;2023-12-20T04:10:59;6.43;;;1.70;;
21677;SDS011;11000;50.360;7.582;2023-12-20T04:13:20;3.50;;;1.20;;
21677;SDS011;11000;50.360;7.582;2023-12-20T04:15:40;5.13;;;1.20;;
21677;SDS011;11000;50.360;7.582;2023-12-20T04:18:01;2.10;;;0.93;;
21677;SDS011;11000;50.360;7.582;2023-12-20T04:20:21;3.93;;;1.10;;
21677;SDS011;11000;50.360;7.582;2023-12-20T04:22:42;3.47;;;1.47;;
21677;SDS011;11000;50.360;7.582;2023-12-20T04:25:02;9.00;;;2.03;;
21677;SDS011;11000;50.360;7.582;2023-12-20T04:27:23;5.07;;;1.40;;
21677;SDS011;11000;50.360;7.582;2023-12-20T04:29:44;4.30;;;0.90;;
21677;SDS011;11000;50.360;7.582;2023-12-20T04:32:04;3.47;;;1.40;;
21677;SDS011;11000;50.360;7.582;2023-12-20T04:34:25;9.20;;;1.57;;
21677;SDS011;11000;50.360;7.582;2023-12-20T04:36:46;6.67;;;1.80;;
21677;SDS011;11000;50.360;7.582;2023-12-20T04:39:06;4.67;;;1.53;;
21677;SDS011;11000;50.360;7.582;2023-12-20T04:41:27;5.00;;;1.73;;
21677;SDS011;11000;50.360;7.582;2023-12-20T04:43:47;7.27;;;2.27;;
21677;SDS011;11000;50.360;7.582;2023-12-20T04:46:08;10.50;;;2.00;;
21677;SDS011;11000;50.360;7.582;2023-12-20T04:48:28;3.90;;;1.57;;
21677;SDS011;11000;50.360;7.582;2023-12-20T04:50:49;4.60;;;1.10;;
21677;SDS011;11000;50.360;7.582;2023-12-20T04:53:09;4.10;;;1.23;;
21677;SDS011;11000;50.360;7.582;2023-12-20T04:55:30;3.37;;;1.37;;
21677;SDS011;11000;50.360;7.582;2023-12-20T04:57:50;5.13;;;1.50;;
21677;SDS011;11000;50.360;7.582;2023-12-20T05:00:11;5.27;;;1.50;;
21677;SDS011;11000;50.360;7.582;2023-12-20T05:02:32;3.43;;;1.77;;
21677;SDS011;11000;50.360;7.582;2023-12-20T05:04:52;6.07;;;2.03;;
21677;SDS011;11000;50.360;7.582;2023-12-20T05:07:13;7.73;;;1.50;;
21677;SDS011;11000;50.360;7.582;2023-12-20T05:09:33;4.63;;;1.70;;
21677;SDS011;11000;50.360;7.582;2023-12-20T05:11:54;2.07;;;1.50;;
21677;SDS011;11000;50.360;7.582;2023-12-20T05:14:14;8.53;;;1.73;;
21677;SDS011;11000;50.360;7.582;2023-12-20T05:16:35;5.70;;;1.90;;
21677;SDS011;11000;50.360;7.582;2023-12-20T05:18:55;8.70;;;1.67;;
21677;SDS011;11000;50.360;7.582;2023-12-20T05:21:16;6.97;;;1.70;;
21677;SDS011;11000;50.360;7.582;2023-12-20T05:23:36;5.10;;;1.60;;
21677;SDS011;11000;50.360;7.582;2023-12-20T05:25:57;5.50;;;1.57;;
21677;SDS011;11000;50.360;7.582;2023-12-20T05:28:18;6.33;;;1.60;;
21677;SDS011;11000;50.360;7.582;2023-12-20T05:30:39;3.87;;;1.60;;
21677;SDS011;11000;50.360;7.582;2023-12-20T05:32:59;9.37;;;2.00;;
21677;SDS011;11000;50.360;7.582;2023-12-20T05:35:20;5.40;;;1.87;;
21677;SDS011;11000;50.360;7.582;2023-12-20T05:37:42;9.40;;;1.87;;
21677;SDS011;11000;50.360;7.582;2023-12-20T05:40:02;9.27;;;1.63;;
21677;SDS011;11000;50.360;7.582;2023-12-20T05:42:24;6.00;;;1.43;;
21677;SDS011;11000;50.360;7.582;2023-12-20T05:44:44;5.17;;;1.80;;
21677;SDS011;11000;50.360;7.582;2023-12-20T05:47:05;9.30;;;1.80;;
21677;SDS011;11000;50.360;7.582;2023-12-20T05:49:25;4.03;;;1.40;;
21677;SDS011;11000;50.360;7.582;2023-12-20T05:51:46;4.33;;;1.53;;
21677;SDS011;11000;50.360;7.582;2023-12-20T05:54:07;3.97;;;1.60;;
21677;SDS011;11000;50.360;7.582;2023-12-20T05:56:29;6.37;;;1.70;;
21677;SDS011;11000;50.360;7.582;2023-12-20T05:58:49;5.20;;;1.30;;
21677;SDS011;11000;50.360;7.582;2023-12-20T06:01:10;5.23;;;1.50;;
21677;SDS011;11000;50.360;7.582;2023-12-20T06:03:30;3.23;;;1.20;;
21677;SDS011;11000;50.360;7.582;2023-12-20T06:05:51;4.90;;;1.73;;
21677;SDS011;11000;50.360;7.582;2023-12-20T06:08:11;6.03;;;1.97;;
21677;SDS011;11000;50.360;7.582;2023-12-20T06:10:32;2.97;;;1.30;;
21677;SDS011;11000;50.360;7.582;2023-12-20T06:12:52;6.57;;;1.63;;
21677;SDS011;11000;50.360;7.582;2023-12-20T06:15:13;5.83;;;1.30;;
21677;SDS011;11000;50.360;7.582;2023-12-20T06:17:34;9.80;;;1.80;;
21677;SDS011;11000;50.360;7.582;2023-12-20T06:19:55;3.93;;;1.80;;
21677;SDS011;11000;50.360;7.582;2023-12-20T06:22:15;9.60;;;2.17;;
21677;SDS011;11000;50.360;7.582;2023-12-20T06:24:36;8.93;;;2.27;;
21677;SDS011;11000;50.360;7.582;2023-12-20T06:26:56;6.60;;;1.67;;
21677;SDS011;11000;50.360;7.582;2023-12-20T06:29:17;4.90;;;1.80;;
21677;SDS011;11000;50.360;7.582;2023-12-20T06:31:37;4.03;;;1.70;;
21677;SDS011;11000;50.360;7.582;2023-12-20T06:33:58;7.40;;;2.23;;
21677;SDS011;11000;50.360;7.582;2023-12-20T06:36:19;4.20;;;1.57;;
21677;SDS011;11000;50.360;7.582;2023-12-20T06:38:40;4.20;;;1.63;;
21677;SDS011;11000;50.360;7.582;2023-12-20T06:41:02;4.83;;;1.70;;
21677;SDS011;11000;50.360;7.582;2023-12-20T06:43:22;7.07;;;1.90;;
21677;SDS011;11000;50.360;7.582;2023-12-20T06:45:43;8.00;;;2.03;;
21677;SDS011;11000;50.360;7.582;2023-12-20T06:48:03;5.50;;;1.40;;
21677;SDS011;11000;50.360;7.582;2023-12-20T06:50:24;6.23;;;1.80;;
21677;SDS011;11000;50.360;7.582;2023-12-20T06:52:45;5.63;;;2.20;;
21677;SDS011;11000;50.360;7.582;2023-12-20T06:55:06;8.00;;;1.90;;
21677;SDS011;11000;50.360;7.582;2023-12-20T06:57:26;8.20;;;1.47;;
21677;SDS011;11000;50.360;7.582;2023-12-20T06:59:47;8.80;;;2.03;;
21677;SDS011;11000;50.360;7.582;2023-12-20T07:02:08;7.03;;;1.73;;
21677;SDS011;11000;50.360;7.582;2023-12-20T07:04:28;7.83;;;1.80;;
21677;SDS011;11000;50.360;7.582;2023-12-20T07:06:49;6.50;;;2.00;;
21677;SDS011;11000;50.360;7.582;2023-12-20T07:09:16;8.00;;;2.03;;
21677;SDS011;11000;50.360;7.582;2023-12-20T07:11:37;5.97;;;1.90;;
21677;SDS011;11000;50.360;7.582;2023-12-20T07:13:57;8.37;;;1.87;;
21677;SDS011;11000;50.360;7.582;2023-12-20T07:16:18;6.33;;;1.70;;
21677;SDS011;11000;50.360;7.582;2023-12-20T07:18:38;6.43;;;1.57;;
21677;SDS011;11000;50.360;7.582;2023-12-20T07:20:59;5.43;;;2.17;;
21677;SDS011;11000;50.360;7.582;2023-12-20T07:23:19;4.00;;;1.83;;
21677;SDS011;11000;50.360;7.582;2023-12-20T07:25:40;9.97;;;1.87;;
21677;SDS011;11000;50.360;7.582;2023-12-20T07:28:00;7.00;;;2.07;;
21677;SDS011;11000;50.360;7.582;2023-12-20T07:30:21;7.33;;;2.10;;
21677;SDS011;11000;50.360;7.582;2023-12-20T07:32:41;7.50;;;1.90;;
21677;SDS011;11000;50.360;7.582;2023-12-20T07:35:02;6.90;;;1.93;;
21677;SDS011;11000;50.360;7.582;2023-12-20T07:37:23;4.87;;;1.90;;
21677;SDS011;11000;50.360;7.582;2023-12-20T07:39:43;5.87;;;1.57;;
21677;SDS011;11000;50.360;7.582;2023-12-20T07:42:04;12.43;;;1.90;;
21677;SDS011;11000;50.360;7.582;2023-12-20T07:44:24;8.53;;;1.60;;
21677;SDS011;11000;50.360;7.582;2023-12-20T07:46:45;6.20;;;1.50;;
21677;SDS011;11000;50.360;7.582;2023-12-20T07:49:05;4.57;;;1.57;;
21677;SDS011;11000;50.360;7.582;2023-12-20T07:51:26;6.27;;;1.60;;
21677;SDS011;11000;50.360;7.582;2023-12-20T07:53:46;7.40;;;1.57;;
21677;SDS011;11000;50.360;7.582;2023-12-20T07:56:13;5.73;;;1.70;;
21677;SDS011;11000;50.360;7.582;2023-12-20T07:58:35;7.30;;;1.93;;
21677;SDS011;11000;50.360;7.582;2023-12-20T08:00:55;9.03;;;2.00;;
21677;SDS011;11000;50.360;7.582;2023-12-20T08:03:16;6.03;;;1.70;;
21677;SDS011;11000;50.360;7.582;2023-12-20T08:05:37;10.77;;;2.10;;
21677;SDS011;11000;50.360;7.582;2023-12-20T08:08:00;10.63;;;2.27;;
21677;SDS011;11000;50.360;7.582;2023-12-20T08:10:20;3.90;;;2.00;;
21677;SDS011;11000;50.360;7.582;2023-12-20T08:12:41;4.30;;;2.13;;
21677;SDS011;11000;50.360;7.582;2023-12-20T08:15:01;5.77;;;1.67;;
21677;SDS011;11000;50.360;7.582;2023-12-20T08:17:23;4.63;;;2.03;;
21677;SDS011;11000;50.360;7.582;2023-12-20T08:19:44;10.27;;;2.03;;
21677;SDS011;11000;50.360;7.582;2023-12-20T08:22:04;6.40;;;2.10;;
21677;SDS011;11000;50.360;7.582;2023-12-20T08:24:25;4.67;;;2.00;;
21677;SDS011;11000;50.360;7.582;2023-12-20T08:26:45;5.60;;;2.00;;
21677;SDS011;11000;50.360;7.582;2023-12-20T08:29:06;7.07;;;2.00;;
21677;SDS011;11000;50.360;7.582;2023-12-20T08:31:27;3.47;;;1.93;;
21677;SDS011;11000;50.360;7.582;2023-12-20T08:33:48;6.80;;;2.07;;
21677;SDS011;11000;50.360;7.582;2023-12-20T08:36:09;8.30;;;2.40;;
21677;SDS011;11000;50.360;7.582;2023-12-20T08:38:30;5.30;;;2.23;;
21677;SDS011;11000;50.360;7.582;2023-12-20T08:40:50;7.27;;;1.97;;
21677;SDS011;11000;50.360;7.582;2023-12-20T08:43:11;13.23;;;2.53;;
21677;SDS011;11000;50.360;7.582;2023-12-20T08:45:31;6.80;;;2.17;;
21677;SDS011;11000;50.360;7.582;2023-12-20T08:47:52;12.77;;;2.30;;
21677;SDS011;11000;50.360;7.582;2023-12-20T08:50:12;8.37;;;2.00;;
21677;SDS011;11000;50.360;7.582;2023-12-20T08:52:33;7.50;;;2.20;;
21677;SDS011;11000;50.360;7.582;2023-12-20T08:54:53;11.93;;;2.83;;
21677;SDS011;11000;50.360;7.582;2023-12-20T08:57:14;8.63;;;2.23;;
21677;SDS011;11000;50.360;7.582;2023-12-20T08:59:34;10.30;;;2.60;;
21677;SDS011;11000;50.360;7.582;2023-12-20T09:01:55;9.50;;;3.13;;
21677;SDS011;11000;50.360;7.582;2023-12-20T09:04:16;6.03;;;2.20;;
21677;SDS011;11000;50.360;7.582;2023-12-20T09:06:36;6.57;;;2.40;;
21677;SDS011;11000;50.360;7.582;2023-12-20T09:08:57;7.73;;;2.33;;
21677;SDS011;11000;50.360;7.582;2023-12-20T09:11:17;5.73;;;2.37;;
21677;SDS011;11000;50.360;7.582;2023-12-20T09:13:38;9.10;;;2.47;;
21677;SDS011;11000;50.360;7.582;2023-12-20T09:15:58;8.50;;;2.13;;
21677;SDS011;11000;50.360;7.582;2023-12-20T09:18:19;7.13;;;2.20;;
21677;SDS011;11000;50.360;7.582;2023-12-20T09:20:39;9.37;;;2.37;;
21677;SDS011;11000;50.360;7.582;2023-12-20T09:23:00;9.67;;;3.27;;
21677;SDS011;11000;50.360;7.582;2023-12-20T09:25:21;7.20;;;2.17;;
21677;SDS011;11000;50.360;7.582;2023-12-20T09:27:43;5.53;;;2.17;;
21677;SDS011;11000;50.360;7.582;2023-12-20T09:30:04;7.87;;;2.13;;
21677;SDS011;11000;50.360;7.582;2023-12-20T09:32:25;10.07;;;2.90;;
21677;SDS011;11000;50.360;7.582;2023-12-20T09:34:46;5.90;;;1.90;;
21677;SDS011;11000;50.360;7.582;2023-12-20T09:37:07;7.10;;;2.70;;
21677;SDS011;11000;50.360;7.582;2023-12-20T09:39:28;7.43;;;2.50;;
21677;SDS011;11000;50.360;7.582;2023-12-20T09:42:07;8.03;;;2.30;;
21677;SDS011;11000;50.360;7.582;2023-12-20T09:44:28;8.17;;;2.47;;
21677;SDS011;11000;50.360;7.582;2023-12-20T09:46:49;10.90;;;2.77;;
21677;SDS011;11000;50.360;7.582;2023-12-20T09:49:11;8.50;;;2.10;;
21677;SDS011;11000;50.360;7.582;2023-12-20T09:51:32;9.23;;;2.77;;
21677;SDS011;11000;50.360;7.582;2023-12-20T09:53:53;10.93;;;2.90;;
21677;SDS011;11000;50.360;7.582;2023-12-20T09:56:15;4.73;;;2.10;;
21677;SDS011;11000;50.360;7.582;2023-12-20T09:58:37;7.93;;;2.60;;
21677;SDS011;11000;50.360;7.582;2023-12-20T10:00:59;7.73;;;2.50;;
21677;SDS011;11000;50.360;7.582;2023-12-20T10:03:24;12.47;;;2.73;;
21677;SDS011;11000;50.360;7.582;2023-12-20T10:05:46;11.20;;;2.40;;
21677;SDS011;11000;50.360;7.582;2023-12-20T10:08:09;7.60;;;2.50;;
21677;SDS011;11000;50.360;7.582;2023-12-20T10:10:29;7.80;;;2.30;;
21677;SDS011;11000;50.360;7.582;2023-12-20T10:13:03;7.60;;;2.23;;
21677;SDS011;11000;50.360;7.582;2023-12-20T10:15:25;5.30;;;2.03;;
21677;SDS011;11000;50.360;7.582;2023-12-20T10:17:46;5.30;;;1.97;;
21677;SDS011;11000;50.360;7.582;2023-12-20T10:20:09;8.43;;;2.20;;
21677;SDS011;11000;50.360;7.582;2023-12-20T10:22:30;7.10;;;1.97;;
21677;SDS011;11000;50.360;7.582;2023-12-20T10:24:51;9.33;;;2.10;;
21677;SDS011;11000;50.360;7.582;2023-12-20T10:27:12;11.43;;;2.40;;
21677;SDS011;11000;50.360;7.582;2023-12-20T10:29:33;7.20;;;2.00;;
21677;SDS011;11000;50.360;7.582;2023-12-20T10:31:57;5.40;;;2.10;;
21677;SDS011;11000;50.360;7.582;2023-12-20T10:34:18;6.27;;;1.83;;
21677;SDS011;11000;50.360;7.582;2023-12-20T10:36:38;9.73;;;2.13;;
21677;SDS011;11000;50.360;7.582;2023-12-20T10:38:59;8.93;;;2.40;;
21677;SDS011;11000;50.360;7.582;2023-12-20T10:41:25;5.70;;;1.97;;
21677;SDS011;11000;50.360;7.582;2023-12-20T10:43:48;10.03;;;2.27;;
21677;SDS011;11000;50.360;7.582;2023-12-20T10:46:08;9.50;;;1.93;;
21677;SDS011;11000;50.360;7.582;2023-12-20T10:48:29;7.40;;;2.20;;
21677;SDS011;11000;50.360;7.582;2023-12-20T10:50:52;8.00;;;1.60;;
21677;SDS011;11000;50.360;7.582;2023-12-20T10:53:14;5.80;;;2.10;;
21677;SDS011;11000;50.360;7.582;2023-12-20T10:55:36;4.17;;;1.87;;
21677;SDS011;11000;50.360;7.582;2023-12-20T10:58:09;9.03;;;1.77;;
21677;SDS011;11000;50.360;7.582;2023-12-20T11:00:30;9.63;;;2.30;;
21677;SDS011;11000;50.360;7.582;2023-12-20T11:02:52;4.47;;;1.57;;
21677;SDS011;11000;50.360;7.582;2023-12-20T11:08:35;6.27;;;1.70;;
21677;SDS011;11000;50.360;7.582;2023-12-20T11:11:04;6.63;;;2.07;;
21677;SDS011;11000;50.360;7.582;2023-12-20T11:13:37;5.77;;;2.03;;
21677;SDS011;11000;50.360;7.582;2023-12-20T11:16:07;11.60;;;2.80;;
21677;SDS011;11000;50.360;7.582;2023-12-20T11:18:31;7.07;;;2.20;;
21677;SDS011;11000;50.360;7.582;2023-12-20T11:20:52;7.50;;;1.70;;
21677;SDS011;11000;50.360;7.582;2023-12-20T11:23:14;4.37;;;1.47;;
21677;SDS011;11000;50.360;7.582;2023-12-20T11:25:46;10.20;;;2.40;;
21677;SDS011;11000;50.360;7.582;2023-12-20T11:28:12;8.07;;;2.13;;
21677;SDS011;11000;50.360;7.582;2023-12-20T11:30:42;3.40;;;1.90;;
21677;SDS011;11000;50.360;7.582;2023-12-20T11:33:07;5.00;;;1.73;;
21677;SDS011;11000;50.360;7.582;2023-12-20T11:35:28;8.90;;;2.07;;
21677;SDS011;11000;50.360;7.582;2023-12-20T11:37:49;8.47;;;2.67;;
21677;SDS011;11000;50.360;7.582;2023-12-20T11:40:12;8.07;;;2.07;;
21677;SDS011;11000;50.360;7.582;2023-12-20T11:42:43;9.30;;;2.20;;
21677;SDS011;11000;50.360;7.582;2023-12-20T11:45:09;6.47;;;1.90;;
21677;SDS011;11000;50.360;7.582;2023-12-20T11:47:39;8.87;;;2.10;;
21677;SDS011;11000;50.360;7.582;2023-12-20T11:50:00;6.40;;;2.30;;
21677;SDS011;11000;50.360;7.582;2023-12-20T11:52:24;9.77;;;2.23;;
21677;SDS011;11000;50.360;7.582;2023-12-20T11:54:45;5.07;;;1.97;;
21677;SDS011;11000;50.360;7.582;2023-12-20T11:57:07;4.33;;;2.20;;
21677;SDS011;11000;50.360;7.582;2023-12-20T11:59:28;4.50;;;2.00;;
21677;SDS011;11000;50.360;7.582;2023-12-20T12:01:49;7.17;;;2.30;;
21677;SDS011;11000;50.360;7.582;2023-12-20T12:04:10;10.30;;;2.30;;
21677;SDS011;11000;50.360;7.582;2023-12-20T12:06:31;7.67;;;2.30;;
21677;SDS011;11000;50.360;7.582;2023-12-20T12:08:51;6.67;;;1.80;;
21677;SDS011;11000;50.360;7.582;2023-12-20T12:11:12;5.70;;;2.33;;
21677;SDS011;11000;50.360;7.582;2023-12-20T12:13:33;8.73;;;2.23;;
21677;SDS011;11000;50.360;7.582;2023-12-20T12:15:53;6.60;;;1.90;;
21677;SDS011;11000;50.360;7.582;2023-12-20T12:18:17;5.63;;;1.93;;
21677;SDS011;11000;50.360;7.582;2023-12-20T12:20:38;10.27;;;2.40;;
21677;SDS011;11000;50.360;7.582;2023-12-20T12:23:02;7.63;;;2.50;;
21677;SDS011;11000;50.360;7.582;2023-12-20T12:25:25;8.73;;;2.07;;
21677;SDS011;11000;50.360;7.582;2023-12-20T12:27:45;5.33;;;2.03;;
21677;SDS011;11000;50.360;7.582;2023-12-20T12:30:06;12.57;;;2.60;;
21677;SDS011;11000;50.360;7.582;2023-12-20T12:32:28;11.23;;;2.40;;
21677;SDS011;11000;50.360;7.582;2023-12-20T12:34:48;6.33;;;2.33;;
21677;SDS011;11000;50.360;7.582;2023-12-20T12:37:09;6.43;;;2.20;;
21677;SDS011;11000;50.360;7.582;2023-12-20T12:39:30;9.60;;;2.43;;
21677;SDS011;11000;50.360;7.582;2023-12-20T12:41:51;7.17;;;2.20;;
21677;SDS011;11000;50.360;7.582;2023-12-20T12:44:12;5.60;;;2.30;;
21677;SDS011;11000;50.360;7.582;2023-12-20T12:46:32;9.57;;;2.80;;
21677;SDS011;11000;50.360;7.582;2023-12-20T12:48:53;9.67;;;2.77;;
21677;SDS011;11000;50.360;7.582;2023-12-20T12:51:13;6.73;;;2.30;;
21677;SDS011;11000;50.360;7.582;2023-12-20T12:53:34;8.37;;;2.70;;
21677;SDS011;11000;50.360;7.582;2023-12-20T12:55:54;10.43;;;2.30;;
21677;SDS011;11000;50.360;7.582;2023-12-20T12:58:15;5.73;;;2.13;;
21677;SDS011;11000;50.360;7.582;2023-12-20T13:00:36;10.33;;;2.77;;
21677;SDS011;11000;50.360;7.582;2023-12-20T13:02:56;9.70;;;2.47;;
21677;SDS011;11000;50.360;7.582;2023-12-20T13:05:17;7.23;;;2.73;;
21677;SDS011;11000;50.360;7.582;2023-12-20T13:07:37;5.73;;;2.63;;
21677;SDS011;11000;50.360;7.582;2023-12-20T13:09:59;8.40;;;2.60;;
21677;SDS011;11000;50.360;7.582;2023-12-20T13:12:20;7.43;;;2.53;;
21677;SDS011;11000;50.360;7.582;2023-12-20T13:14:41;10.50;;;2.80;;
21677;SDS011;11000;50.360;7.582;2023-12-20T13:17:02;9.00;;;2.37;;
21677;SDS011;11000;50.360;7.582;2023-12-20T13:19:23;6.13;;;2.57;;
21677;SDS011;11000;50.360;7.582;2023-12-20T13:21:44;9.00;;;2.20;;
21677;SDS011;11000;50.360;7.582;2023-12-20T13:24:04;8.10;;;2.27;;
21677;SDS011;11000;50.360;7.582;2023-12-20T13:26:25;6.53;;;2.20;;
21677;SDS011;11000;50.360;7.582;2023-12-20T13:28:45;7.00;;;1.87;;
21677;SDS011;11000;50.360;7.582;2023-12-20T13:31:06;6.70;;;2.20;;
21677;SDS011;11000;50.360;7.582;2023-12-20T13:33:26;9.80;;;2.60;;
21677;SDS011;11000;50.360;7.582;2023-12-20T13:35:47;8.20;;;2.50;;
21677;SDS011;11000;50.360;7.582;2023-12-20T13:38:07;8.27;;;2.20;;
21677;SDS011;11000;50.360;7.582;2023-12-20T13:40:28;4.97;;;1.90;;
21677;SDS011;11000;50.360;7.582;2023-12-20T13:42:48;7.00;;;2.33;;
21677;SDS011;11000;50.360;7.582;2023-12-20T13:45:09;8.73;;;2.27;;
21677;SDS011;11000;50.360;7.582;2023-12-20T13:47:29;8.10;;;2.53;;
21677;SDS011;11000;50.360;7.582;2023-12-20T13:49:50;19.63;;;2.90;;
21677;SDS011;11000;50.360;7.582;2023-12-20T13:52:11;7.27;;;2.77;;
21677;SDS011;11000;50.360;7.582;2023-12-20T13:54:31;7.00;;;2.27;;
21677;SDS011;11000;50.360;7.582;2023-12-20T13:56:52;8.63;;;2.30;;
21677;SDS011;11000;50.360;7.582;2023-12-20T13:59:12;6.10;;;1.70;;
21677;SDS011;11000;50.360;7.582;2023-12-20T14:01:34;10.00;;;2.40;;
21677;SDS011;11000;50.360;7.582;2023-12-20T14:03:54;6.50;;;2.50;;
21677;SDS011;11000;50.360;7.582;2023-12-20T14:06:15;10.80;;;2.77;;
21677;SDS011;11000;50.360;7.582;2023-12-20T14:08:36;9.77;;;2.53;;
21677;SDS011;11000;50.360;7.582;2023-12-20T14:10:57;9.03;;;2.40;;